Salisbury, North Carolina
Current Conditions -  °F | °C
As of 3:35 AM on Monday 26 Jan 2015 (Local Time) from KRUQ Reporting Station
Overcast Overcast  
Wind Chill: 40°   Ceiling: 10000
Heat Index: 40°   Visibility: 10mi
Dew Point: 33°   Wind: 0mph
Humidity: 78%   Direction: NA
Pressure: 29.66"   Gusts: NA
Location:  35.67°N, 80.47°W
Report Text: KRUQ 260835Z AUTO 00000KT 10SM BKN100 OVC120 04/01 A2966 RMK AO2 T00430008
Loading
Personal Weather Stations






























Interactive Weather Map New forecast layout! Learn more

10-Day Weather Forecast

Advertisements
Track Severe Weather on mobile